Time;durP1;ratioP1;P1;durP2;ratioP2;P2;SDS_P1;SDS_P2;PMS_P1;PMS_P2;Temp;Humidity;BMP_temperature;BMP_pressure;BME280_temperature;BME280_humidity;BME280_pressure;Samples;Min_cycle;Max_cycle;Signal;HPM_P1;HPM_P2
2022/07/27 00:02:41;;;;;;;6.38;1.10;;;21.90;71.50;;;;;;6263326;28;20047;-80
2022/07/27 00:05:43;;;;;;;3.47;0.90;;;21.70;72.00;;;;;;6263956;28;20067;-80
2022/07/27 00:08:45;;;;;;;2.88;1.20;;;21.60;72.00;;;;;;6262552;28;20045;-80
2022/07/27 00:11:48;;;;;;;4.55;0.80;;;21.50;72.10;;;;;;6265158;28;20049;-80
2022/07/27 00:14:50;;;;;;;2.15;1.00;;;21.50;72.40;;;;;;6256350;28;20412;-82
2022/07/27 00:17:52;;;;;;;2.15;0.88;;;21.60;72.60;;;;;;6250585;28;20060;-81
2022/07/27 00:20:54;;;;;;;5.85;1.02;;;21.60;72.70;;;;;;6250780;28;20506;-81
2022/07/27 00:23:56;;;;;;;3.67;1.52;;;21.60;73.00;;;;;;6251204;28;20050;-81
2022/07/27 00:26:59;;;;;;;3.25;1.15;;;21.60;73.40;;;;;;6251897;28;20053;-81
2022/07/27 00:30:01;;;;;;;1.83;0.80;;;21.50;73.60;;;;;;6250161;28;20533;-82
2022/07/27 00:33:04;;;;;;;4.28;1.33;;;21.50;73.80;;;;;;6251258;28;20040;-82
2022/07/27 00:36:07;;;;;;;2.55;1.23;;;21.40;74.20;;;;;;6250753;28;20053;-81
2022/07/27 00:39:09;;;;;;;2.65;0.75;;;21.40;74.40;;;;;;6249797;28;20068;-81
2022/07/27 00:42:12;;;;;;;2.25;1.10;;;21.50;74.70;;;;;;6248247;28;20535;-81
2022/07/27 00:45:14;;;;;;;1.88;0.88;;;21.50;74.80;;;;;;6247715;28;20049;-81
2022/07/27 00:48:16;;;;;;;1.63;1.05;;;21.50;74.80;;;;;;6236247;28;20125;-81
2022/07/27 00:51:19;;;;;;;1.35;0.80;;;21.60;74.80;;;;;;6224019;28;20050;-81
2022/07/27 00:54:21;;;;;;;1.90;0.90;;;21.70;74.60;;;;;;6222905;28;20052;-81
2022/07/27 00:57:26;;;;;;;12.50;2.03;;;21.70;74.30;;;;;;6222988;28;20142;-81
2022/07/27 01:00:28;;;;;;;2.17;0.93;;;21.80;74.30;;;;;;6223370;28;20048;-81
2022/07/27 01:03:30;;;;;;;2.17;1.25;;;21.80;74.00;;;;;;6223652;28;20403;-81
2022/07/27 01:06:33;;;;;;;1.50;0.90;;;21.80;73.90;;;;;;6223705;28;20047;-81
2022/07/27 01:12:55;;;;;;;8.98;1.13;;;21.90;73.90;;;;;;6223139;28;20030;-80
2022/07/27 01:15:58;;;;;;;1.75;1.17;;;21.80;73.80;;;;;;6222896;28;20050;-81
2022/07/27 01:18:59;;;;;;;3.75;0.95;;;21.80;74.20;;;;;;6223942;28;20050;-81
2022/07/27 01:22:03;;;;;;;4.65;0.77;;;21.80;74.20;;;;;;6223706;28;20050;-81
2022/07/27 01:25:05;;;;;;;2.50;0.93;;;21.80;74.30;;;;;;6223351;28;20048;-82
2022/07/27 01:28:07;;;;;;;1.83;0.80;;;21.80;74.30;;;;;;6222655;28;20054;-81
2022/07/27 01:31:09;;;;;;;0.65;0.65;;;21.80;74.30;;;;;;6223369;28;20419;-81
2022/07/27 01:34:11;;;;;;;4.15;1.55;;;21.80;74.50;;;;;;6222987;28;20053;-81
2022/07/27 01:37:14;;;;;;;1.35;0.52;;;21.80;74.50;;;;;;6222783;28;20046;-81
2022/07/27 01:40:15;;;;;;;6.13;1.05;;;21.90;74.50;;;;;;6224814;28;20049;-81
2022/07/27 01:43:18;;;;;;;1.10;0.90;;;21.90;74.50;;;;;;6225679;28;20049;-81
2022/07/27 01:46:19;;;;;;;2.45;0.80;;;21.80;74.40;;;;;;6224469;28;20061;-81
2022/07/27 01:49:21;;;;;;;3.60;1.17;;;21.80;74.50;;;;;;6224797;28;20054;-81
2022/07/27 01:52:24;;;;;;;2.67;1.08;;;21.80;74.60;;;;;;6224615;28;20046;-81
2022/07/27 01:55:26;;;;;;;1.13;0.98;;;21.80;74.70;;;;;;6225253;28;20050;-81
2022/07/27 01:58:28;;;;;;;1.52;0.82;;;21.80;74.70;;;;;;6224528;28;20045;-81
2022/07/27 02:01:30;;;;;;;3.33;1.00;;;21.80;74.80;;;;;;6224994;28;20181;-81
2022/07/27 02:04:32;;;;;;;2.55;1.30;;;21.80;75.00;;;;;;6225181;28;20684;-81
2022/07/27 02:07:35;;;;;;;2.50;0.85;;;21.70;75.30;;;;;;6228891;28;20054;-82
2022/07/27 02:12:34;;;;;;;1.63;0.90;;;21.60;75.90;;;;;;6229068;28;20053;-81
2022/07/27 02:13:58;;;;;;;4.72;0.95;;;21.50;76.50;;;;;;6238299;28;20415;-81
2022/07/27 02:16:59;;;;;;;3.38;1.05;;;21.40;77.00;;;;;;6247736;28;20042;-81
2022/07/27 02:20:02;;;;;;;1.83;1.10;;;21.30;77.40;;;;;;6246091;28;20119;-81
2022/07/27 02:23:05;;;;;;;3.50;0.90;;;21.20;77.90;;;;;;6246267;28;20053;-81
2022/07/27 02:26:08;;;;;;;1.40;1.10;;;21.10;78.10;;;;;;6247748;28;20106;-81
2022/07/27 02:29:09;;;;;;;3.53;0.95;;;21.10;79.10;;;;;;6247557;28;20060;-81
2022/07/27 02:32:11;;;;;;;1.73;0.88;;;21.10;79.10;;;;;;6246112;28;20042;-81
2022/07/27 02:35:13;;;;;;;2.22;0.80;;;21.00;79.30;;;;;;6241057;28;20110;-80
2022/07/27 02:38:16;;;;;;;1.70;0.73;;;20.90;79.70;;;;;;6233199;28;20042;-80
2022/07/27 02:41:18;;;;;;;2.53;1.02;;;20.90;80.20;;;;;;6234792;28;20069;-80
2022/07/27 02:44:19;;;;;;;1.55;1.10;;;20.80;80.30;;;;;;6235140;28;20049;-80
2022/07/27 02:47:21;;;;;;;2.40;1.05;;;20.70;80.90;;;;;;6235630;28;20046;-80
2022/07/27 02:50:23;;;;;;;3.15;1.08;;;20.60;81.20;;;;;;6241036;28;20052;-80
2022/07/27 02:53:26;;;;;;;2.92;1.83;;;20.50;81.60;;;;;;6243022;28;20396;-80
2022/07/27 02:56:28;;;;;;;2.50;0.93;;;20.50;81.90;;;;;;6242810;28;20049;-80
2022/07/27 02:59:30;;;;;;;1.58;1.02;;;20.50;82.10;;;;;;6241679;28;20050;-80
2022/07/27 03:02:31;;;;;;;1.95;1.23;;;20.50;81.80;;;;;;6241514;28;20045;-80
2022/07/27 03:05:33;;;;;;;5.18;0.98;;;20.50;81.10;;;;;;6241734;28;20045;-80
2022/07/27 03:08:37;;;;;;;1.10;0.85;;;20.50;80.60;;;;;;6241711;28;20125;-80
2022/07/27 03:11:38;;;;;;;1.17;0.80;;;20.60;80.40;;;;;;6242121;28;20053;-80
2022/07/27 03:14:40;;;;;;;0.95;0.50;;;20.60;80.10;;;;;;6242369;28;20052;-80
2022/07/27 03:17:42;;;;;;;2.80;0.70;;;20.60;79.90;;;;;;6241579;28;20423;-80
2022/07/27 03:20:44;;;;;;;3.28;0.60;;;20.70;79.70;;;;;;6242115;28;20045;-80
2022/07/27 03:23:47;;;;;;;5.47;0.70;;;20.70;79.40;;;;;;6241435;28;20051;-80
2022/07/27 03:26:48;;;;;;;3.40;0.70;;;20.80;79.50;;;;;;6240936;28;20054;-80
2022/07/27 03:29:51;;;;;;;1.95;0.98;;;20.80;79.20;;;;;;6240622;28;20046;-80
2022/07/27 03:32:52;;;;;;;1.77;0.80;;;20.80;79.00;;;;;;6239134;28;20048;-79
2022/07/27 03:35:54;;;;;;;1.17;0.40;;;20.90;78.70;;;;;;6239384;28;20415;-79
2022/07/27 03:38:57;;;;;;;7.95;1.10;;;21.00;78.60;;;;;;6240568;28;20060;-79
2022/07/27 03:41:59;;;;;;;3.83;1.20;;;21.00;78.00;;;;;;6240302;28;20054;-79
2022/07/27 03:45:00;;;;;;;4.18;1.13;;;21.00;77.90;;;;;;6237957;28;20046;-79
2022/07/27 03:48:02;;;;;;;0.60;0.55;;;21.10;78.20;;;;;;6234864;28;20419;-79
2022/07/27 03:51:04;;;;;;;1.85;0.90;;;21.10;78.30;;;;;;6236746;28;20060;-79
2022/07/27 03:54:07;;;;;;;2.13;0.82;;;21.10;78.70;;;;;;6236616;28;20056;-79
2022/07/27 03:57:09;;;;;;;2.55;1.10;;;21.10;78.80;;;;;;6236320;28;20046;-79
2022/07/27 04:00:12;;;;;;;3.85;1.30;;;21.10;79.00;;;;;;6236720;28;20523;-79
2022/07/27 04:03:14;;;;;;;2.25;0.82;;;21.10;79.00;;;;;;6237717;28;20058;-79
2022/07/27 04:06:16;;;;;;;2.45;0.90;;;21.10;79.50;;;;;;6234863;28;20419;-79
2022/07/27 04:09:19;;;;;;;3.40;1.30;;;21.00;79.90;;;;;;6236914;28;20057;-79
2022/07/27 04:12:20;;;;;;;2.67;1.42;;;20.90;80.30;;;;;;6237837;28;20038;-79
2022/07/27 04:15:22;;;;;;;1.35;0.90;;;20.90;80.50;;;;;;6237065;28;20052;-79
2022/07/27 04:18:24;;;;;;;1.15;0.95;;;20.90;80.60;;;;;;6237224;28;20067;-79
2022/07/27 04:21:26;;;;;;;4.30;1.25;;;20.90;80.70;;;;;;6237162;28;20049;-79
2022/07/27 04:24:29;;;;;;;1.50;1.00;;;20.80;80.90;;;;;;6231103;28;20038;-78
2022/07/27 04:27:31;;;;;;;2.15;0.98;;;20.70;80.60;;;;;;6229769;28;20053;-79
2022/07/27 04:30:33;;;;;;;3.63;1.42;;;20.80;80.90;;;;;;6228335;28;20488;-79
2022/07/27 04:33:35;;;;;;;6.40;1.50;;;20.80;80.80;;;;;;6229626;28;20060;-79
2022/07/27 04:36:38;;;;;;;2.47;1.00;;;20.90;80.70;;;;;;6227705;28;20433;-79
2022/07/27 04:39:42;;;;;;;2.90;1.10;;;21.00;80.50;;;;;;6228469;28;20053;-80
2022/07/27 04:42:43;;;;;;;2.03;0.88;;;21.20;80.00;;;;;;6225821;28;20046;-80
2022/07/27 04:45:45;;;;;;;5.85;1.58;;;21.40;79.80;;;;;;6225862;28;20503;-80
2022/07/27 04:48:47;;;;;;;3.17;1.10;;;21.60;79.40;;;;;;6226203;28;20052;-80
2022/07/27 04:51:48;;;;;;;4.63;0.90;;;21.70;78.90;;;;;;6226112;28;20064;-80
2022/07/27 04:54:53;;;;;;;2.38;1.40;;;21.70;78.30;;;;;;6225796;28;20038;-80
2022/07/27 04:57:55;;;;;;;4.07;1.20;;;21.70;78.40;;;;;;6226286;28;20454;-79
2022/07/27 05:00:56;;;;;;;5.68;1.63;;;21.60;78.80;;;;;;6225697;28;20046;-84
2022/07/27 05:03:58;;;;;;;2.33;1.00;;;21.60;78.90;;;;;;6221140;28;20049;-78
2022/07/27 05:07:00;;;;;;;2.58;0.95;;;21.70;79.20;;;;;;6221577;28;20475;-78
2022/07/27 05:10:04;;;;;;;2.80;1.00;;;21.70;78.80;;;;;;6171082;28;20050;-80
2022/07/27 05:13:06;;;;;;;3.70;0.90;;;21.90;78.50;;;;;;6236278;28;20042;-80
2022/07/27 05:16:09;;;;;;;3.83;1.27;;;22.20;77.50;;;;;;6248814;28;20747;-80
2022/07/27 05:19:11;;;;;;;4.53;0.88;;;22.60;76.40;;;;;;6241455;28;20515;-80
2022/07/27 05:22:13;;;;;;;5.93;0.85;;;23.20;74.80;;;;;;6231590;28;20534;-82
2022/07/27 05:25:16;;;;;;;2.00;0.90;;;23.90;72.30;;;;;;6233915;28;20052;-80
2022/07/27 05:28:18;;;;;;;0.93;0.60;;;24.80;68.80;;;;;;6234499;28;20045;-80
2022/07/27 05:31:19;;;;;;;3.88;1.20;;;25.70;65.70;;;;;;6236458;28;20049;-80
2022/07/27 05:34:21;;;;;;;2.80;0.70;;;26.70;62.20;;;;;;6232893;28;20053;-81
2022/07/27 05:37:23;;;;;;;2.83;0.40;;;27.30;59.60;;;;;;6225375;28;20056;-80
2022/07/27 05:40:26;;;;;;;1.98;0.75;;;27.60;57.70;;;;;;6230154;28;20045;-81
2022/07/27 05:43:28;;;;;;;2.03;0.40;;;27.50;56.90;;;;;;6239886;28;20049;-80
2022/07/27 05:46:32;;;;;;;1.48;0.65;;;26.90;57.90;;;;;;6247965;28;20061;-80
2022/07/27 05:49:33;;;;;;;1.98;0.68;;;26.10;59.30;;;;;;6248081;28;20108;-80
2022/07/27 05:52:36;;;;;;;2.20;0.68;;;25.60;61.00;;;;;;6248744;28;20499;-80
2022/07/27 05:55:39;;;;;;;10.98;0.82;;;25.10;62.00;;;;;;6247969;28;20057;-79
2022/07/27 05:58:41;;;;;;;4.65;0.85;;;24.60;63.40;;;;;;6247412;28;20133;-79
2022/07/27 06:01:42;;;;;;;3.80;1.05;;;24.10;64.80;;;;;;6247478;28;20053;-79
2022/07/27 06:04:44;;;;;;;4.28;0.70;;;24.00;65.70;;;;;;6233324;28;20049;-81
2022/07/27 06:08:02;;;;;;;2.42;0.70;;;23.90;65.70;;;;;;6224123;28;20061;-80
2022/07/27 06:11:05;;;;;;;2.67;0.45;;;24.00;66.10;;;;;;6236535;28;20514;-80
2022/07/27 06:14:07;;;;;;;1.52;1.00;;;24.10;65.90;;;;;;6242954;28;20139;-81
2022/07/27 06:17:09;;;;;;;8.57;0.70;;;24.20;65.70;;;;;;6247757;28;20416;-80
2022/07/27 06:20:11;;;;;;;1.52;0.80;;;24.20;66.20;;;;;;6242498;28;20046;-80
2022/07/27 06:23:13;;;;;;;2.95;0.52;;;24.20;66.10;;;;;;6247520;28;20045;-80
2022/07/27 06:26:16;;;;;;;2.42;0.70;;;24.20;65.70;;;;;;6248266;28;20057;-80
2022/07/27 06:29:18;;;;;;;3.90;0.57;;;24.10;65.90;;;;;;6247743;28;20045;-80
2022/07/27 06:32:20;;;;;;;1.35;0.45;;;24.10;65.90;;;;;;6247748;28;20037;-80
2022/07/27 06:35:22;;;;;;;1.90;0.40;;;24.00;66.30;;;;;;6248436;28;20510;-80
2022/07/27 06:38:24;;;;;;;0.82;0.40;;;23.90;66.60;;;;;;6248629;28;20105;-81
2022/07/27 06:41:27;;;;;;;2.78;0.50;;;24.00;66.80;;;;;;6248614;28;20518;-80
2022/07/27 06:44:29;;;;;;;1.00;0.70;;;24.10;66.60;;;;;;6247894;28;20049;-81
2022/07/27 06:47:30;;;;;;;2.03;0.32;;;24.20;66.20;;;;;;6247359;28;20049;-80
2022/07/27 06:50:32;;;;;;;1.40;0.68;;;24.40;65.80;;;;;;6246061;28;20052;-81
2022/07/27 06:53:34;;;;;;;0.95;0.60;;;24.70;65.30;;;;;;6227906;28;20054;-80
2022/07/27 06:56:37;;;;;;;4.18;0.50;;;25.10;64.00;;;;;;6226517;28;20045;-80
2022/07/27 06:59:39;;;;;;;3.08;0.68;;;25.30;62.80;;;;;;6227260;28;20061;-81
2022/07/27 07:02:52;;;;;;;4.03;1.20;;;25.40;61.60;;;;;;6234669;28;20046;-81
2022/07/27 07:05:54;;;;;;;3.88;0.80;;;25.50;61.50;;;;;;6226651;28;20049;-81
2022/07/27 07:08:55;;;;;;;3.53;0.73;;;25.80;60.20;;;;;;6226734;28;20037;-81
2022/07/27 07:11:58;;;;;;;1.55;0.50;;;25.90;60.50;;;;;;6227107;28;20057;-80
2022/07/27 07:15:00;;;;;;;2.38;0.40;;;26.20;59.70;;;;;;6228678;28;20412;-81
2022/07/27 07:18:02;;;;;;;1.08;0.63;;;26.20;59.20;;;;;;6230153;28;20057;-81
2022/07/27 07:21:04;;;;;;;8.50;1.23;;;26.10;59.60;;;;;;6237890;28;20145;-81
2022/07/27 07:24:06;;;;;;;1.25;0.50;;;26.00;59.90;;;;;;6251608;28;20060;-80
2022/07/27 07:27:09;;;;;;;1.65;0.40;;;25.90;59.70;;;;;;6251816;28;20140;-80
2022/07/27 07:30:12;;;;;;;2.03;0.40;;;26.00;59.60;;;;;;6250850;28;20045;-81
2022/07/27 07:33:14;;;;;;;1.10;0.43;;;26.10;59.30;;;;;;6251207;28;20045;-80
2022/07/27 07:36:16;;;;;;;4.35;0.30;;;26.50;58.40;;;;;;6251994;28;20048;-80
2022/07/27 07:39:17;;;;;;;1.98;0.60;;;26.90;57.20;;;;;;6252309;28;20056;-80
2022/07/27 07:42:20;;;;;;;3.38;0.50;;;27.10;56.60;;;;;;6250760;28;20050;-80
2022/07/27 07:45:24;;;;;;;3.65;0.45;;;27.30;56.30;;;;;;6250461;28;20503;-80
2022/07/27 07:48:26;;;;;;;3.08;0.52;;;27.60;55.80;;;;;;6250615;28;20541;-81
2022/07/27 07:51:27;;;;;;;1.30;0.20;;;28.00;54.60;;;;;;6240857;28;20041;-80
2022/07/27 07:54:29;;;;;;;2.00;0.63;;;28.00;53.80;;;;;;6250964;28;20049;-81
2022/07/27 07:57:32;;;;;;;1.52;0.47;;;27.70;54.30;;;;;;6250305;28;20041;-80
2022/07/27 08:00:34;;;;;;;4.82;0.40;;;27.80;54.60;;;;;;6250607;28;20041;-81
2022/07/27 08:03:36;;;;;;;2.45;0.35;;;28.00;53.60;;;;;;6251284;28;20049;-81
2022/07/27 08:06:38;;;;;;;1.60;0.75;;;28.20;52.80;;;;;;6237905;28;20054;-81
2022/07/27 08:09:40;;;;;;;1.50;0.30;;;28.20;53.10;;;;;;6224707;28;20466;-81
2022/07/27 08:12:45;;;;;;;2.42;0.40;;;28.20;53.00;;;;;;6225469;28;20048;-81
2022/07/27 08:15:47;;;;;;;3.00;0.35;;;28.10;53.40;;;;;;6225585;28;20053;-81
2022/07/27 08:18:48;;;;;;;2.75;0.50;;;28.00;53.00;;;;;;6225284;28;20046;-81
2022/07/27 08:21:50;;;;;;;2.22;0.70;;;27.90;53.20;;;;;;6240551;28;20052;-81
2022/07/27 08:24:52;;;;;;;2.45;0.63;;;28.00;53.10;;;;;;6248842;28;20037;-80
2022/07/27 08:27:55;;;;;;;11.10;1.65;;;28.30;52.50;;;;;;6248217;28;20052;-80
2022/07/27 08:30:57;;;;;;;2.47;0.38;;;28.50;52.30;;;;;;6249922;28;20055;-80
2022/07/27 08:33:58;;;;;;;2.25;0.40;;;28.60;52.20;;;;;;6249660;28;20357;-81
2022/07/27 08:37:00;;;;;;;1.63;0.30;;;28.60;51.70;;;;;;6249431;28;20511;-81
2022/07/27 08:40:02;;;;;;;2.78;0.30;;;28.70;51.70;;;;;;6248977;28;20053;-80
2022/07/27 08:43:06;;;;;;;1.02;0.20;;;29.00;50.80;;;;;;6249132;28;20049;-81
2022/07/27 08:46:10;;;;;;;2.20;0.70;;;29.10;49.80;;;;;;6248303;28;20048;-80
2022/07/27 08:49:13;;;;;;;1.52;0.80;;;28.90;50.10;;;;;;6249695;28;20045;-80
2022/07/27 08:52:15;;;;;;;1.15;0.40;;;28.80;50.20;;;;;;6240873;28;20052;-80
2022/07/27 08:55:18;;;;;;;1.15;0.45;;;28.60;50.40;;;;;;6251147;28;20046;-80
2022/07/27 08:58:21;;;;;;;1.98;0.30;;;28.70;50.20;;;;;;6248657;28;20050;-81
2022/07/27 09:01:22;;;;;;;0.93;0.35;;;29.00;49.90;;;;;;6248696;28;20046;-80
2022/07/27 09:04:24;;;;;;;4.97;1.30;;;29.40;49.20;;;;;;6248574;28;20507;-81
2022/07/27 09:07:30;;;;;;;3.47;0.88;;;29.60;49.00;;;;;;6243353;28;20045;-81
2022/07/27 09:10:34;;;;;;;3.08;0.60;;;29.70;48.70;;;;;;6249070;22;20064;-78
2022/07/27 09:13:37;;;;;;;2.72;0.50;;;29.70;48.80;;;;;;6226762;28;20041;-78
2022/07/27 09:16:39;;;;;;;1.92;0.40;;;29.60;48.80;;;;;;6224651;28;20041;-78
2022/07/27 09:19:52;;;;;;;7.15;0.50;;;29.40;49.40;;;;;;6232228;28;20049;-77
2022/07/27 09:22:56;;;;;;;0.68;0.38;;;29.10;50.30;;;;;;6238552;28;20045;-77
2022/07/27 09:26:13;;;;;;;3.53;0.50;;;29.40;50.00;;;;;;6249492;28;20056;-78
2022/07/27 09:29:17;;;;;;;2.00;0.38;;;29.40;48.80;;;;;;6249211;28;20049;-78
2022/07/27 09:32:18;;;;;;;1.65;0.80;;;29.50;49.10;;;;;;6250569;28;20502;-77
2022/07/27 09:35:22;;;;;;;2.17;1.05;;;29.70;48.90;;;;;;6250454;28;20045;-78
2022/07/27 09:38:25;;;;;;;1.13;0.20;;;30.10;47.90;;;;;;6250515;28;20049;-78
2022/07/27 09:41:27;;;;;;;2.47;0.45;;;30.40;47.40;;;;;;6251069;28;20049;-79
2022/07/27 09:44:35;;;;;;;3.22;0.90;;;30.60;46.90;;;;;;6249807;28;20052;-79
2022/07/27 09:47:38;;;;;;;4.80;0.60;;;30.40;46.70;;;;;;6250386;28;20483;-77
2022/07/27 09:50:42;;;;;;;2.58;0.68;;;30.00;47.40;;;;;;6239612;28;20045;-78
2022/07/27 09:53:44;;;;;;;2.83;0.73;;;29.70;47.80;;;;;;6200362;28;20043;-77
2022/07/27 09:56:57;;;;;;;3.00;0.32;;;29.60;48.30;;;;;;6199037;28;20057;-77
2022/07/27 10:00:11;;;;;;;6.35;0.70;;;29.70;48.20;;;;;;6201294;28;20197;-79
2022/07/27 10:03:13;;;;;;;1.15;0.47;;;29.30;47.80;;;;;;6203303;28;20056;-78
2022/07/27 10:06:16;;;;;;;5.55;0.50;;;28.90;48.50;;;;;;6201840;28;20043;-79
2022/07/27 10:09:19;;;;;;;4.15;1.67;;;28.80;49.70;;;;;;6217279;28;20060;-79
2022/07/27 10:12:20;;;;;;;1.45;0.70;;;29.00;49.00;;;;;;6226368;28;20055;-78
2022/07/27 10:15:24;;;;;;;0.68;0.40;;;29.20;48.70;;;;;;6226925;28;20052;-79
2022/07/27 10:18:37;;;;;;;7.03;0.50;;;29.30;48.70;;;;;;6226148;28;20128;-80
2022/07/27 10:21:40;;;;;;;1.65;0.57;;;29.50;48.40;;;;;;6241566;28;20046;-79
2022/07/27 10:24:42;;;;;;;0.80;0.30;;;30.10;46.50;;;;;;6249607;28;20164;-79
2022/07/27 10:27:47;;;;;;;4.32;1.33;;;30.30;45.90;;;;;;6253015;28;20049;-79
2022/07/27 10:30:50;;;;;;;1.05;0.25;;;30.20;45.60;;;;;;6254299;28;20045;-78
2022/07/27 10:33:53;;;;;;;0.75;0.30;;;30.10;46.00;;;;;;6255300;28;20052;-78
2022/07/27 10:36:55;;;;;;;1.90;0.60;;;30.30;45.70;;;;;;6254279;28;20052;-78
2022/07/27 10:43:19;;;;;;;3.58;0.52;;;31.00;44.10;;;;;;6254378;28;20132;-79
2022/07/27 10:46:22;;;;;;;;;;;31.10;43.70;;;;;;6255193;28;20049;-80
2022/07/27 10:49:26;;;;;;;2.90;0.60;;;31.30;43.00;;;;;;6251747;28;19932;-79
2022/07/27 10:52:41;;;;;;;8.80;0.50;;;31.40;43.20;;;;;;6245212;28;20485;-78
2022/07/27 10:55:47;;;;;;;3.22;0.80;;;31.60;42.70;;;;;;6253861;28;20458;-79
2022/07/27 10:58:51;;;;;;;1.08;0.40;;;32.00;42.00;;;;;;6253543;28;20088;-78
2022/07/27 11:01:58;;;;;;;3.22;0.35;;;32.30;41.40;;;;;;6253203;28;20064;-78
2022/07/27 11:05:04;;;;;;;2.78;0.35;;;32.40;40.90;;;;;;6250421;28;20056;-79
2022/07/27 11:08:06;;;;;;;1.27;0.30;;;32.60;40.50;;;;;;6236594;28;20053;-79
2022/07/27 11:11:10;;;;;;;5.03;0.82;;;32.90;40.30;;;;;;6226339;28;20050;-79
2022/07/27 11:14:12;;;;;;;2.03;0.45;;;33.10;39.50;;;;;;6225912;28;20042;-79
2022/07/27 11:17:16;;;;;;;2.25;0.57;;;33.50;39.40;;;;;;6229489;28;20245;-80
2022/07/27 11:20:22;;;;;;;5.13;0.70;;;33.60;38.50;;;;;;6237296;28;20046;-80
2022/07/27 11:23:24;;;;;;;5.85;0.40;;;33.60;39.70;;;;;;6250367;28;20057;-78
2022/07/27 11:26:27;;;;;;;4.10;0.85;;;33.10;39.60;;;;;;6251136;28;20041;-79
2022/07/27 11:29:33;;;;;;;2.85;0.47;;;33.20;39.40;;;;;;6251014;28;20046;-79
2022/07/27 11:32:37;;;;;;;2.67;0.60;;;33.10;39.50;;;;;;6251739;28;20049;-78
2022/07/27 11:35:50;;;;;;;7.38;0.60;;;33.10;39.50;;;;;;6252878;28;20056;-79
2022/07/27 11:38:54;;;;;;;2.00;0.90;;;33.30;39.20;;;;;;6251986;28;20064;-79
2022/07/27 11:41:57;;;;;;;1.80;0.77;;;33.60;38.70;;;;;;6250724;28;20195;-80
2022/07/27 11:45:00;;;;;;;1.42;0.43;;;34.10;38.20;;;;;;6250737;28;20648;-79
2022/07/27 11:48:06;;;;;;;4.35;0.57;;;34.40;37.50;;;;;;6251745;28;20491;-78
2022/07/27 11:51:08;;;;;;;1.07;0.50;;;34.50;37.80;;;;;;6238572;28;20526;-77
2022/07/27 11:54:12;;;;;;;1.85;0.57;;;34.60;37.60;;;;;;6252126;28;20048;-78
2022/07/27 11:57:17;;;;;;;3.88;0.47;;;34.60;37.80;;;;;;6248891;28;20045;-79
2022/07/27 12:00:19;;;;;;;2.67;0.80;;;34.40;37.90;;;;;;6251620;28;20103;-78
2022/07/27 12:03:24;;;;;;;1.02;0.30;;;34.40;37.30;;;;;;6251267;28;20057;-77
2022/07/27 12:06:26;;;;;;;2.58;0.63;;;34.10;38.10;;;;;;6249454;28;20053;-77
2022/07/27 12:09:29;;;;;;;4.47;0.63;;;33.80;37.90;;;;;;6248308;28;20045;-77
2022/07/27 12:12:32;;;;;;;2.05;0.40;;;33.90;38.00;;;;;;6223343;28;20141;-77
2022/07/27 12:15:34;;;;;;;3.00;0.55;;;34.00;37.50;;;;;;6223914;28;20056;-77
2022/07/27 12:18:43;;;;;;;3.67;0.63;;;34.10;37.40;;;;;;6223317;28;20049;-78
2022/07/27 12:21:52;;;;;;;8.75;0.60;;;34.00;37.20;;;;;;6223964;28;20050;-78
2022/07/27 12:24:54;;;;;;;3.65;0.80;;;34.10;37.30;;;;;;6227613;28;20041;-77
2022/07/27 12:27:57;;;;;;;4.38;0.50;;;34.10;36.60;;;;;;6226924;28;20053;-78
2022/07/27 12:30:59;;;;;;;1.90;0.82;;;34.10;36.90;;;;;;6226896;28;20046;-78
2022/07/27 12:34:04;;;;;;;3.67;0.50;;;34.20;36.60;;;;;;6231398;28;20061;-78
2022/07/27 12:37:12;;;;;;;5.40;0.40;;;34.50;36.50;;;;;;6237487;28;20046;-79
2022/07/27 12:40:16;;;;;;;0.88;0.20;;;34.50;36.40;;;;;;6228367;28;20128;-78
2022/07/27 12:43:22;;;;;;;3.35;0.82;;;34.10;36.40;;;;;;6229260;28;20049;-79
2022/07/27 12:46:24;;;;;;;2.57;0.60;;;33.70;36.70;;;;;;6228034;28;20049;-79
2022/07/27 12:49:33;;;;;;;1.00;0.60;;;33.50;36.90;;;;;;6231869;28;20050;-78
2022/07/27 12:52:37;;;;;;;3.58;0.50;;;33.50;36.60;;;;;;6242970;28;20442;-78
2022/07/27 12:55:40;;;;;;;5.13;0.55;;;33.50;36.80;;;;;;6251984;28;20422;-78
2022/07/27 12:58:57;;;;;;;1.15;0.45;;;33.50;36.90;;;;;;6252710;28;20053;-79
2022/07/27 13:01:59;;;;;;;2.08;0.50;;;33.20;37.20;;;;;;6252009;28;20053;-78
2022/07/27 13:05:02;;;;;;;5.20;0.70;;;33.10;37.60;;;;;;6236976;28;20045;-77
2022/07/27 13:08:04;;;;;;;3.03;0.65;;;32.70;37.10;;;;;;6252610;28;20046;-76
2022/07/27 13:11:06;;;;;;;3.17;0.50;;;32.50;37.30;;;;;;6245981;28;20600;-77
2022/07/27 13:14:08;;;;;;;3.50;0.57;;;32.20;37.40;;;;;;6224652;28;20050;-77
2022/07/27 13:17:09;;;;;;;4.40;0.57;;;32.10;37.80;;;;;;6224346;28;20107;-77
2022/07/27 13:20:14;;;;;;;1.55;0.47;;;31.90;38.00;;;;;;6232962;28;20052;-77
2022/07/27 13:23:15;;;;;;;3.40;0.82;;;32.00;38.20;;;;;;6247035;28;20049;-78
2022/07/27 13:26:19;;;;;;;3.45;0.68;;;32.10;38.50;;;;;;6249640;28;20049;-78
2022/07/27 13:29:21;;;;;;;3.67;0.60;;;32.30;37.50;;;;;;6249824;28;20053;-78
2022/07/27 13:32:22;;;;;;;2.92;0.73;;;32.30;37.90;;;;;;6248554;28;20120;-77
2022/07/27 13:35:26;;;;;;;4.82;0.70;;;32.80;37.10;;;;;;6249536;28;20049;-78
2022/07/27 13:38:28;;;;;;;3.08;0.70;;;33.50;36.00;;;;;;6248928;28;20045;-77
2022/07/27 13:41:30;;;;;;;2.63;1.05;;;33.70;35.60;;;;;;6250027;28;20057;-78
2022/07/27 13:44:31;;;;;;;1.85;0.50;;;33.60;35.80;;;;;;6249058;28;20080;-78
2022/07/27 13:47:33;;;;;;;3.45;0.57;;;33.30;36.10;;;;;;6250345;28;20053;-78
2022/07/27 13:50:36;;;;;;;3.10;0.47;;;33.30;35.70;;;;;;6240980;28;20053;-78
2022/07/27 13:53:38;;;;;;;3.35;0.52;;;33.60;35.40;;;;;;6248932;28;20053;-78
2022/07/27 13:56:40;;;;;;;3.63;0.47;;;34.10;35.00;;;;;;6249992;28;20340;-77
2022/07/27 13:59:42;;;;;;;7.15;0.68;;;34.40;34.80;;;;;;6249633;28;20362;-78
2022/07/27 14:02:43;;;;;;;3.22;0.63;;;34.80;34.60;;;;;;6253154;28;20041;-78
2022/07/27 14:05:46;;;;;;;2.17;0.50;;;34.90;33.90;;;;;;6255339;28;20047;-77
2022/07/27 14:08:48;;;;;;;2.40;0.40;;;35.10;33.30;;;;;;6245633;28;20052;-78
2022/07/27 14:11:50;;;;;;;1.45;0.30;;;35.40;33.20;;;;;;6229502;28;20049;-77
2022/07/27 14:14:52;;;;;;;2.33;0.90;;;35.40;32.90;;;;;;6229420;28;20061;-77
2022/07/27 14:17:53;;;;;;;2.03;0.60;;;35.30;32.90;;;;;;6229850;28;20042;-79
2022/07/27 14:20:59;;;;;;;5.63;0.52;;;35.40;32.80;;;;;;6240139;28;20042;-79
2022/07/27 14:24:00;;;;;;;3.15;0.55;;;35.50;32.40;;;;;;6256596;28;20060;-78
2022/07/27 14:27:02;;;;;;;2.08;0.50;;;35.80;32.00;;;;;;6254930;28;20050;-78
2022/07/27 14:30:05;;;;;;;0.90;0.43;;;35.40;31.80;;;;;;6254804;28;20049;-80
2022/07/27 14:33:07;;;;;;;5.25;0.52;;;35.10;32.50;;;;;;6253449;28;20045;-80
2022/07/27 14:36:10;;;;;;;2.08;0.45;;;35.20;32.30;;;;;;6252655;28;20427;-79
2022/07/27 14:39:11;;;;;;;1.27;0.45;;;35.30;32.10;;;;;;6252690;28;20049;-80
2022/07/27 14:42:13;;;;;;;6.38;0.60;;;35.60;31.90;;;;;;6253390;28;20056;-79
2022/07/27 14:45:15;;;;;;;1.13;0.50;;;35.80;32.00;;;;;;6252571;28;20056;-78
2022/07/27 14:48:18;;;;;;;3.50;0.68;;;35.40;32.30;;;;;;6253470;28;20046;-79
2022/07/27 14:51:21;;;;;;;2.08;0.70;;;35.00;32.30;;;;;;6243658;28;20058;-79
2022/07/27 14:54:23;;;;;;;2.20;0.57;;;34.50;32.70;;;;;;6253351;28;20513;-78
2022/07/27 14:57:25;;;;;;;3.00;0.20;;;34.30;32.90;;;;;;6252672;28;20066;-80
2022/07/27 15:00:27;;;;;;;1.80;0.60;;;34.30;33.40;;;;;;6230609;28;20057;-79
2022/07/27 15:03:28;;;;;;;0.75;0.25;;;34.20;32.70;;;;;;6227892;28;20046;-80
2022/07/27 15:06:32;;;;;;;2.65;0.65;;;33.90;32.70;;;;;;6227764;28;20419;-80
2022/07/27 15:09:34;;;;;;;6.55;0.80;;;33.90;32.80;;;;;;6275646;22;20085;-76
2022/07/27 15:12:37;;;;;;;1.90;0.52;;;33.40;33.00;;;;;;6247867;28;20128;-77
2022/07/27 15:15:39;;;;;;;1.17;0.40;;;33.20;33.50;;;;;;6248479;28;20483;-77
2022/07/27 15:18:42;;;;;;;5.10;0.70;;;33.30;33.70;;;;;;6248453;28;20049;-78
2022/07/27 15:21:47;;;;;;;4.05;0.50;;;33.50;33.60;;;;;;6257129;28;20046;-78
2022/07/27 15:24:51;;;;;;;5.30;0.60;;;33.70;33.10;;;;;;6249591;28;20128;-79
2022/07/27 15:27:53;;;;;;;2.08;0.57;;;33.80;32.90;;;;;;6248796;28;20497;-80
2022/07/27 15:30:56;;;;;;;1.75;0.40;;;33.90;32.50;;;;;;6249558;28;20414;-78
2022/07/27 15:33:58;;;;;;;0.93;0.35;;;33.90;32.60;;;;;;6248351;28;20573;-78
2022/07/27 15:37:06;;;;;;;6.97;0.65;;;33.90;32.90;;;;;;6248020;28;20041;-78
2022/07/27 15:43:30;;;;;;;2.83;0.38;;;33.70;32.80;;;;;;6248028;28;20073;-77
2022/07/27 15:46:32;;;;;;;3.10;0.45;;;33.50;32.70;;;;;;6248487;28;20041;-77
2022/07/27 15:49:35;;;;;;;4.03;0.50;;;33.20;32.80;;;;;;6255476;28;20049;-77
2022/07/27 15:52:39;;;;;;;2.30;0.63;;;33.10;33.10;;;;;;6236645;28;20045;-78
2022/07/27 15:55:43;;;;;;;0.82;0.40;;;33.30;33.00;;;;;;6224154;28;20201;-78
2022/07/27 15:58:45;;;;;;;1.17;0.40;;;33.60;32.70;;;;;;6223889;28;20672;-77
2022/07/27 16:01:47;;;;;;;2.47;0.60;;;33.50;32.70;;;;;;6239099;28;20128;-79
2022/07/27 16:04:49;;;;;;;3.63;0.80;;;33.70;32.60;;;;;;6251781;28;20064;-79